createdAt,value
2022-08-24T00:01:46.633Z,2732
2022-08-24T00:02:46.521Z,3209
2022-08-24T00:03:46.324Z,3149
2022-08-24T00:04:48.656Z,2583
2022-08-24T00:06:46.522Z,3137
2022-08-24T00:07:46.332Z,3137
2022-08-24T00:08:46.327Z,3149
2022-08-24T00:09:49.453Z,3149
2022-08-24T00:11:46.542Z,2661
2022-08-24T00:12:46.333Z,2754
2022-08-24T00:13:46.232Z,3234
2022-08-24T00:14:46.247Z,3340
2022-08-24T00:16:46.641Z,2921
2022-08-24T00:17:46.335Z,2553
2022-08-24T00:18:46.232Z,3268
2022-08-24T00:19:46.237Z,2674
2022-08-24T00:21:46.550Z,3261
2022-08-24T00:22:46.236Z,2691
2022-08-24T00:23:46.255Z,3246
2022-08-24T00:24:46.239Z,3340
2022-08-24T00:26:46.541Z,2722
2022-08-24T00:27:46.347Z,2558
2022-08-24T00:28:46.587Z,3176
2022-08-24T00:29:46.360Z,3122
2022-08-24T00:31:46.613Z,2601
2022-08-24T00:32:46.271Z,3265
2022-08-24T00:33:46.339Z,2620
2022-08-24T00:34:58.124Z,2780
2022-08-24T00:36:46.562Z,3315
2022-08-24T00:37:46.271Z,3397
2022-08-24T00:38:46.345Z,3346
2022-08-24T00:39:46.376Z,2620
2022-08-24T00:41:46.554Z,3228
2022-08-24T00:42:46.345Z,2727
2022-08-24T00:43:46.385Z,3369
2022-08-24T00:44:46.351Z,3315
2022-08-24T00:46:46.545Z,3369
2022-08-24T00:47:47.710Z,3302
2022-08-24T00:48:46.348Z,3340
2022-08-24T00:49:46.383Z,2737
2022-08-24T00:51:46.544Z,3353
2022-08-24T00:52:46.279Z,2727
2022-08-24T00:53:46.365Z,3143
2022-08-24T00:54:46.694Z,3315
2022-08-24T00:56:46.563Z,3330
2022-08-24T00:57:46.382Z,3277
2022-08-24T00:58:46.365Z,3265
2022-08-24T00:59:46.381Z,3265
2022-08-24T01:01:47.560Z,3246
2022-08-24T01:02:46.462Z,3268
2022-08-24T01:03:46.358Z,2948
2022-08-24T01:04:46.389Z,3340
2022-08-24T01:06:46.553Z,3302
2022-08-24T01:07:46.281Z,3330
2022-08-24T01:08:46.362Z,2548
2022-08-24T01:09:46.270Z,2961
2022-08-24T01:11:46.581Z,2717
2022-08-24T01:12:48.149Z,3290
2022-08-24T01:13:46.280Z,3340
2022-08-24T01:14:46.260Z,3302
2022-08-24T01:16:46.576Z,2853
2022-08-24T01:18:53.909Z,400
2022-08-24T01:19:53.945Z,486
2022-08-24T01:20:53.977Z,534
2022-08-24T01:21:53.912Z,545
2022-08-24T01:22:54.089Z,548
2022-08-24T01:23:53.949Z,560
2022-08-24T01:24:53.901Z,737
2022-08-24T01:25:53.901Z,746
2022-08-24T01:26:53.915Z,732
2022-08-24T01:27:54.127Z,400
2022-08-24T01:28:53.892Z,889
2022-08-24T01:29:53.911Z,882
2022-08-24T01:30:53.892Z,900
2022-08-24T01:31:54.004Z,674
2022-08-24T01:32:54.107Z,665
2022-08-24T01:33:53.979Z,830
2022-08-24T01:34:53.891Z,597
2022-08-24T01:35:53.900Z,813
2022-08-24T01:36:53.985Z,556
2022-08-24T01:37:54.112Z,607
2022-08-24T01:38:53.986Z,851
2022-08-24T01:39:54.022Z,880
2022-08-24T01:40:53.904Z,643
2022-08-24T01:41:53.912Z,643
2022-08-24T01:42:54.084Z,808
2022-08-24T01:43:53.995Z,834
2022-08-24T01:44:53.989Z,626
2022-08-24T01:45:53.960Z,834
2022-08-24T01:46:53.967Z,834
2022-08-24T01:47:54.084Z,838
2022-08-24T01:48:53.971Z,629
2022-08-24T01:49:53.989Z,634
2022-08-24T01:50:53.980Z,800
2022-08-24T01:51:53.990Z,872
2022-08-24T01:53:04.725Z,872
2022-08-24T01:53:54.000Z,851
2022-08-24T01:54:53.912Z,832
2022-08-24T01:55:53.968Z,780
2022-08-24T01:56:53.908Z,851
2022-08-24T01:57:54.117Z,650
2022-08-24T01:58:53.965Z,618
2022-08-24T01:59:53.905Z,808
2022-08-24T02:00:53.996Z,832
2022-08-24T02:01:54.018Z,848
2022-08-24T02:02:54.136Z,817
2022-08-24T02:03:53.941Z,821
2022-08-24T02:04:53.911Z,793
2022-08-24T02:05:53.962Z,785
2022-08-24T02:06:53.973Z,763
2022-08-24T02:07:54.119Z,785
2022-08-24T02:08:53.975Z,821
2022-08-24T02:09:53.972Z,848
2022-08-24T02:10:56.332Z,832
2022-08-24T02:11:53.969Z,855
2022-08-24T02:12:54.119Z,577
2022-08-24T02:13:53.932Z,832
2022-08-24T02:14:53.927Z,785
2022-08-24T02:15:53.945Z,633
2022-08-24T02:16:53.921Z,618
2022-08-24T02:17:54.104Z,848
2022-08-24T02:18:53.980Z,865
2022-08-24T02:19:54.005Z,668
2022-08-24T02:20:53.978Z,665
2022-08-24T02:21:54.015Z,614
2022-08-24T02:22:54.177Z,649
2022-08-24T02:23:53.986Z,848
2022-08-24T02:24:53.920Z,855
2022-08-24T02:25:53.986Z,821
2022-08-24T02:26:54.008Z,848
2022-08-24T02:27:54.107Z,623
2022-08-24T02:28:53.925Z,629
2022-08-24T02:29:53.938Z,570
2022-08-24T02:30:53.955Z,629
2022-08-24T02:31:53.929Z,629
2022-08-24T02:32:54.119Z,838
2022-08-24T02:33:53.927Z,863
2022-08-24T02:34:54.678Z,855
2022-08-24T02:35:54.015Z,623
2022-08-24T02:36:54.013Z,599
2022-08-24T02:37:54.144Z,840
2022-08-24T02:38:54.271Z,776
2022-08-24T02:39:54.084Z,832
2022-08-24T02:40:54.019Z,868
2022-08-24T02:41:53.985Z,851
2022-08-24T02:42:54.136Z,742
2022-08-24T02:43:53.992Z,589
2022-08-24T02:44:54.023Z,810
2022-08-24T02:45:54.032Z,683
2022-08-24T02:46:54.018Z,599
2022-08-24T02:47:54.111Z,804
2022-08-24T02:48:56.591Z,848
2022-08-24T02:49:53.971Z,863
2022-08-24T02:50:53.937Z,889
2022-08-24T02:51:53.945Z,817
2022-08-24T02:52:54.153Z,665
2022-08-24T02:53:53.939Z,846
2022-08-24T02:54:54.002Z,570
2022-08-24T02:55:53.946Z,650
2022-08-24T02:56:53.955Z,660
2022-08-24T02:57:54.131Z,615
2022-08-24T02:58:54.374Z,819
2022-08-24T02:59:54.000Z,586
2022-08-24T03:00:54.027Z,759
2022-08-24T03:01:54.069Z,810
2022-08-24T03:02:54.207Z,836
2022-08-24T03:03:54.002Z,783
2022-08-24T03:04:54.018Z,774
2022-08-24T03:05:53.946Z,549
2022-08-24T03:06:54.021Z,768
2022-08-24T03:07:54.130Z,768
2022-08-24T03:08:56.380Z,798
2022-08-24T03:09:53.954Z,776
2022-08-24T03:10:54.004Z,793
2022-08-24T03:11:54.034Z,838
2022-08-24T03:12:54.153Z,832
2022-08-24T03:13:54.027Z,776
2022-08-24T03:14:53.959Z,813
2022-08-24T03:15:54.023Z,872
2022-08-24T03:16:54.004Z,776
2022-08-24T03:17:54.156Z,624
2022-08-24T03:18:54.018Z,626
2022-08-24T03:19:54.009Z,649
2022-08-24T03:20:53.952Z,626
2022-08-24T03:21:53.951Z,855
2022-08-24T03:22:54.137Z,865
2022-08-24T03:23:54.015Z,626
2022-08-24T03:24:53.959Z,603
2022-08-24T03:25:54.020Z,599
2022-08-24T03:26:53.961Z,596
2022-08-24T03:27:54.213Z,783
2022-08-24T03:28:53.956Z,624
2022-08-24T03:29:53.955Z,624
2022-08-24T03:30:54.028Z,611
2022-08-24T03:31:53.956Z,844
2022-08-24T03:32:54.154Z,540
2022-08-24T03:33:54.045Z,581
2022-08-24T03:34:54.018Z,802
2022-08-24T03:35:54.024Z,802
2022-08-24T03:36:54.023Z,817
2022-08-24T03:37:54.172Z,614
2022-08-24T03:38:54.025Z,810
2022-08-24T03:39:53.997Z,810
2022-08-24T03:40:53.974Z,634
2022-08-24T03:41:54.027Z,646
2022-08-24T03:42:54.160Z,802
2022-08-24T03:43:53.976Z,897
2022-08-24T03:44:53.966Z,641
2022-08-24T03:45:54.008Z,649
2022-08-24T03:46:54.022Z,641
2022-08-24T03:47:54.178Z,877
2022-08-24T03:48:54.360Z,617
2022-08-24T03:49:54.036Z,817
2022-08-24T03:50:54.031Z,836
2022-08-24T03:51:53.982Z,774
2022-08-24T03:52:54.151Z,627
2022-08-24T03:53:54.029Z,798
2022-08-24T03:54:53.977Z,646
2022-08-24T03:55:53.982Z,678
2022-08-24T03:56:53.979Z,895
2022-08-24T03:57:54.179Z,665
2022-08-24T03:58:53.970Z,631
2022-08-24T03:59:54.050Z,748
2022-08-24T04:00:54.055Z,868
2022-08-24T04:01:54.133Z,649
2022-08-24T04:02:54.225Z,817
2022-08-24T04:03:54.034Z,614
2022-08-24T04:04:54.048Z,836
2022-08-24T04:05:54.007Z,623
2022-08-24T04:06:54.061Z,637
2022-08-24T04:07:54.169Z,840
2022-08-24T04:08:54.050Z,672
2022-08-24T04:09:54.041Z,918
2022-08-24T04:10:54.046Z,848
2022-08-24T04:11:54.044Z,603
2022-08-24T04:12:54.901Z,672
2022-08-24T04:13:53.975Z,970
2022-08-24T04:14:53.977Z,857
2022-08-24T04:15:53.984Z,961
2022-08-24T04:16:58.006Z,537
2022-08-24T04:17:54.172Z,827
2022-08-24T04:18:54.043Z,961
2022-08-24T04:19:53.990Z,657
2022-08-24T04:20:54.043Z,674
2022-08-24T04:21:54.035Z,913
2022-08-24T04:22:54.182Z,679
2022-08-24T04:23:54.043Z,712
2022-08-24T04:24:54.050Z,715
2022-08-24T04:25:53.993Z,885
2022-08-24T04:26:54.004Z,627
2022-08-24T04:27:54.175Z,975
2022-08-24T04:28:53.986Z,945
2022-08-24T04:29:53.987Z,674
2022-08-24T04:30:54.032Z,900
2022-08-24T04:31:54.096Z,804
2022-08-24T04:32:54.198Z,964
2022-08-24T04:33:54.196Z,954
2022-08-24T04:34:54.086Z,954
2022-08-24T04:35:54.049Z,699
2022-08-24T04:36:53.990Z,954
2022-08-24T04:37:54.200Z,972
2022-08-24T04:38:53.998Z,887
2022-08-24T04:39:54.064Z,844
2022-08-24T04:40:54.083Z,895
2022-08-24T04:41:54.004Z,640
2022-08-24T04:42:54.182Z,645
2022-08-24T04:43:54.009Z,666
2022-08-24T04:44:54.056Z,678
2022-08-24T04:45:54.143Z,905
2022-08-24T04:46:54.006Z,671
2022-08-24T04:47:54.229Z,643
2022-08-24T04:48:54.001Z,954
2022-08-24T04:49:53.999Z,678
2022-08-24T04:50:54.057Z,660
2022-08-24T04:51:54.057Z,694
2022-08-24T04:52:54.196Z,688
2022-08-24T04:53:54.002Z,964
2022-08-24T04:54:54.058Z,710
2022-08-24T04:55:54.070Z,956
2022-08-24T04:56:54.004Z,942
2022-08-24T04:57:54.235Z,964
2022-08-24T04:58:54.018Z,930
2022-08-24T04:59:54.071Z,918
2022-08-24T05:00:54.138Z,678
2022-08-24T05:01:54.033Z,678
2022-08-24T05:02:54.240Z,633
2022-08-24T05:03:54.073Z,954
2022-08-24T05:04:54.009Z,923
2022-08-24T05:05:54.067Z,688
2022-08-24T05:06:54.422Z,945
2022-08-24T05:07:56.552Z,930
2022-08-24T05:08:54.024Z,640
2022-08-24T05:09:54.021Z,887
2022-08-24T05:10:54.029Z,895
2022-08-24T05:11:54.014Z,640
2022-08-24T05:12:54.195Z,949
2022-08-24T05:13:54.094Z,925
2022-08-24T05:14:54.085Z,915
2022-08-24T05:15:54.029Z,678
2022-08-24T05:16:54.157Z,933
2022-08-24T05:17:54.189Z,686
2022-08-24T05:18:54.070Z,634
2022-08-24T05:19:54.021Z,868
2022-08-24T05:20:54.024Z,611
2022-08-24T05:21:54.016Z,708
2022-08-24T05:22:55.598Z,885
2022-08-24T05:23:54.016Z,895
2022-08-24T05:24:54.025Z,895
2022-08-24T05:25:54.060Z,887
2022-08-24T05:26:54.065Z,920
2022-08-24T05:27:54.199Z,649
2022-08-24T05:28:54.109Z,848
2022-08-24T05:29:54.086Z,599
2022-08-24T05:30:54.035Z,848
2022-08-24T05:31:54.018Z,838
2022-08-24T05:32:54.240Z,838
2022-08-24T05:33:54.021Z,848
2022-08-24T05:34:54.030Z,714
2022-08-24T05:35:54.107Z,629
2022-08-24T05:36:54.027Z,857
2022-08-24T05:37:54.201Z,865
2022-08-24T05:38:54.106Z,623
2022-08-24T05:39:54.039Z,840
2022-08-24T05:40:54.083Z,817
2022-08-24T05:41:54.029Z,827
2022-08-24T05:42:54.210Z,827
2022-08-24T05:43:54.113Z,464
2022-08-24T05:44:54.109Z,853
2022-08-24T05:45:54.030Z,832
2022-08-24T05:46:54.141Z,594
2022-08-24T05:47:54.247Z,617
2022-08-24T05:48:54.086Z,857
2022-08-24T05:49:54.030Z,564
2022-08-24T05:50:54.095Z,825
2022-08-24T05:51:54.094Z,605
2022-08-24T05:52:54.241Z,840
2022-08-24T05:53:54.034Z,768
2022-08-24T05:54:54.040Z,783
2022-08-24T05:55:54.091Z,542
2022-08-24T05:56:54.095Z,539
2022-08-24T05:57:54.229Z,717
2022-08-24T05:58:54.070Z,515
2022-08-24T05:59:54.086Z,634
2022-08-24T06:00:54.075Z,496
2022-08-24T06:01:54.174Z,672
2022-08-24T06:02:54.350Z,710
2022-08-24T06:03:54.092Z,772
2022-08-24T06:04:54.040Z,421
2022-08-24T06:05:54.097Z,757
2022-08-24T06:06:54.125Z,780
2022-08-24T06:07:54.233Z,556
2022-08-24T06:08:54.044Z,717
2022-08-24T06:09:54.127Z,728
2022-08-24T06:10:54.061Z,556
2022-08-24T06:11:54.046Z,699
2022-08-24T06:12:54.229Z,742
2022-08-24T06:13:54.462Z,527
2022-08-24T06:14:54.073Z,708
2022-08-24T06:16:11.133Z,520
2022-08-24T06:16:54.185Z,714
2022-08-24T06:17:54.278Z,694
2022-08-24T06:18:54.109Z,580
2022-08-24T06:19:54.104Z,688
2022-08-24T06:20:57.738Z,506
2022-08-24T06:21:54.070Z,543
2022-08-24T06:22:54.252Z,464
2022-08-24T06:23:54.048Z,607
2022-08-24T06:24:54.079Z,445
2022-08-24T06:25:54.112Z,612
2022-08-24T06:26:54.110Z,442
2022-08-24T06:27:54.235Z,602
2022-08-24T06:28:54.112Z,607
2022-08-24T06:29:54.055Z,495
2022-08-24T06:30:54.158Z,427
2022-08-24T06:31:54.927Z,441
2022-08-24T06:32:54.241Z,589
2022-08-24T06:33:54.113Z,603
2022-08-24T06:34:54.084Z,433
2022-08-24T06:35:54.142Z,517
2022-08-24T06:36:54.061Z,581
2022-08-24T06:37:54.250Z,612
2022-08-24T06:38:54.115Z,426
2022-08-24T06:39:54.889Z,704
2022-08-24T06:40:54.061Z,674
2022-08-24T06:41:54.074Z,462
2022-08-24T06:42:54.254Z,615
2022-08-24T06:43:54.147Z,432
2022-08-24T06:44:54.064Z,452
2022-08-24T06:45:54.086Z,584
2022-08-24T06:46:54.111Z,438
2022-08-24T06:47:54.263Z,561
2022-08-24T06:48:54.065Z,454
2022-08-24T06:49:54.059Z,574
2022-08-24T06:50:54.156Z,492
2022-08-24T06:51:54.074Z,517
2022-08-24T06:52:54.276Z,486
2022-08-24T06:53:54.063Z,503
2022-08-24T06:54:54.153Z,506
2022-08-24T06:55:54.153Z,686
2022-08-24T06:56:54.066Z,686
2022-08-24T06:57:54.259Z,686
2022-08-24T06:58:54.125Z,700
2022-08-24T06:59:54.137Z,491
2022-08-24T07:00:54.128Z,641
2022-08-24T07:01:54.158Z,617
2022-08-24T07:02:54.292Z,650
2022-08-24T07:03:54.085Z,665
2022-08-24T07:04:54.132Z,732
2022-08-24T07:05:54.098Z,560
2022-08-24T07:06:54.085Z,572
2022-08-24T07:07:54.283Z,505
2022-08-24T07:08:54.076Z,740
2022-08-24T07:09:54.084Z,761
2022-08-24T07:10:54.165Z,555
2022-08-24T07:11:54.138Z,555
2022-08-24T07:12:54.307Z,774
2022-08-24T07:13:54.077Z,518
2022-08-24T07:14:54.088Z,702
2022-08-24T07:15:54.109Z,615
2022-08-24T07:16:54.093Z,714
2022-08-24T07:17:54.285Z,708
2022-08-24T07:18:54.098Z,678
2022-08-24T07:19:54.138Z,719
2022-08-24T07:20:54.142Z,432
2022-08-24T07:21:54.084Z,408
2022-08-24T07:22:54.279Z,500
2022-08-24T07:23:54.146Z,445
2022-08-24T07:24:54.103Z,460
2022-08-24T07:25:55.975Z,519
2022-08-24T07:26:54.164Z,530
2022-08-24T07:27:54.293Z,530
2022-08-24T07:28:54.087Z,536
2022-08-24T07:30:10.170Z,791
2022-08-24T07:30:54.157Z,778
2022-08-24T07:31:54.113Z,737
2022-08-24T07:32:54.301Z,778
2022-08-24T07:33:54.145Z,549
2022-08-24T07:34:54.174Z,768
2022-08-24T07:35:56.221Z,406
2022-08-24T07:36:54.121Z,514
2022-08-24T07:37:54.284Z,596
2022-08-24T07:38:54.100Z,674
2022-08-24T07:39:54.177Z,483
2022-08-24T07:41:14.691Z,483
2022-08-24T07:42:11.866Z,476
2022-08-24T07:42:54.287Z,657
2022-08-24T07:43:54.097Z,671
2022-08-24T07:44:54.155Z,652
2022-08-24T07:45:54.163Z,420
2022-08-24T07:46:54.170Z,427
2022-08-24T07:47:55.283Z,487
2022-08-24T07:48:59.995Z,591
2022-08-24T07:49:54.099Z,641
2022-08-24T07:50:54.112Z,650
2022-08-24T07:51:54.123Z,641
2022-08-24T07:52:54.304Z,400
2022-08-24T07:53:54.471Z,683
2022-08-24T07:54:54.119Z,656
2022-08-24T07:55:54.162Z,690
2022-08-24T07:56:54.173Z,476
2022-08-24T07:57:54.316Z,524
2022-08-24T07:58:54.382Z,543
2022-08-24T07:59:54.123Z,702
2022-08-24T08:00:54.129Z,692
2022-08-24T08:01:54.181Z,672
2022-08-24T08:02:54.335Z,660
2022-08-24T08:03:54.166Z,501
2022-08-24T08:04:54.112Z,457
2022-08-24T08:05:54.127Z,465
2022-08-24T08:06:54.108Z,400
2022-08-24T08:07:54.305Z,602
2022-08-24T08:08:54.116Z,427
2022-08-24T08:09:54.170Z,486
2022-08-24T08:10:54.180Z,631
2022-08-24T08:11:54.169Z,441
2022-08-24T08:12:54.324Z,450
2022-08-24T08:13:54.170Z,418
2022-08-24T08:14:54.116Z,411
2022-08-24T08:15:56.656Z,408
2022-08-24T08:16:54.183Z,400
2022-08-24T08:17:56.020Z,470
2022-08-24T08:19:09.143Z,615
2022-08-24T08:19:54.179Z,650
2022-08-24T08:20:54.172Z,665
2022-08-24T08:21:54.133Z,452
2022-08-24T08:22:54.363Z,599
2022-08-24T08:23:54.177Z,638
2022-08-24T08:24:54.131Z,637
2022-08-24T08:25:54.172Z,641
2022-08-24T08:26:54.190Z,649
2022-08-24T08:27:54.308Z,634
2022-08-24T08:28:54.123Z,461
2022-08-24T08:29:54.179Z,631
2022-08-24T08:30:54.170Z,461
2022-08-24T08:31:54.179Z,607
2022-08-24T08:32:54.318Z,459
2022-08-24T08:33:54.134Z,617
2022-08-24T08:34:55.294Z,442
2022-08-24T08:35:54.125Z,626
2022-08-24T08:36:54.223Z,657
2022-08-24T08:37:54.341Z,660
2022-08-24T08:38:54.191Z,657
2022-08-24T08:39:54.201Z,481
2022-08-24T08:40:54.198Z,578
2022-08-24T08:41:54.142Z,671
2022-08-24T08:42:54.346Z,594
2022-08-24T08:43:54.130Z,488
2022-08-24T08:44:54.150Z,674
2022-08-24T08:45:54.216Z,702
2022-08-24T08:46:54.189Z,765
2022-08-24T08:47:54.395Z,785
2022-08-24T08:48:54.141Z,748
2022-08-24T08:49:54.194Z,629
2022-08-24T08:50:54.228Z,537
2022-08-24T08:51:54.134Z,581
2022-08-24T08:52:54.362Z,882
2022-08-24T08:53:54.137Z,617
2022-08-24T08:54:54.148Z,827
2022-08-24T08:55:54.200Z,800
2022-08-24T08:56:58.693Z,752
2022-08-24T08:57:54.318Z,817
2022-08-24T08:58:57.792Z,808
2022-08-24T08:59:54.194Z,581
2022-08-24T09:00:54.139Z,603
2022-08-24T09:01:54.170Z,624
2022-08-24T09:02:54.351Z,885
2022-08-24T09:03:54.286Z,631
2022-08-24T09:04:54.310Z,897
2022-08-24T09:06:54.202Z,597
2022-08-24T09:07:54.349Z,891
2022-08-24T09:08:54.203Z,436
2022-08-24T09:09:54.165Z,682
2022-08-24T09:10:54.145Z,836
2022-08-24T09:11:54.158Z,836
2022-08-24T09:12:54.325Z,853
2022-08-24T09:13:54.201Z,882
2022-08-24T09:14:54.147Z,913
2022-08-24T09:15:57.525Z,918
2022-08-24T09:16:54.270Z,905
2022-08-24T09:17:54.331Z,668
2022-08-24T09:18:54.169Z,907
2022-08-24T09:19:54.233Z,920
2022-08-24T09:20:54.177Z,959
2022-08-24T09:21:54.534Z,964
2022-08-24T09:22:54.365Z,987
2022-08-24T09:23:54.187Z,975
2022-08-24T09:24:54.216Z,951
2022-08-24T09:25:54.224Z,1001
2022-08-24T09:26:54.176Z,1019
2022-08-24T09:27:54.368Z,1001
2022-08-24T09:28:54.158Z,1125
2022-08-24T09:29:54.221Z,1125
2022-08-24T09:30:54.240Z,692
2022-08-24T09:31:54.241Z,795
2022-08-24T09:32:54.359Z,774
2022-08-24T09:33:54.206Z,772
2022-08-24T09:34:54.161Z,730
2022-08-24T09:35:54.178Z,624
2022-08-24T09:36:54.223Z,740
2022-08-24T09:37:54.383Z,1009
2022-08-24T09:38:54.245Z,975
2022-08-24T09:39:54.274Z,868
2022-08-24T09:40:54.236Z,954
2022-08-24T09:41:54.235Z,1050
2022-08-24T09:42:54.368Z,1060
2022-08-24T09:43:54.237Z,1178
2022-08-24T09:44:54.235Z,1065
2022-08-24T09:45:54.276Z,1204
2022-08-24T09:46:54.251Z,785
2022-08-24T09:47:54.375Z,802
2022-08-24T09:48:54.227Z,848
2022-08-24T09:49:54.200Z,1224
2022-08-24T09:50:54.179Z,1270
2022-08-24T09:51:54.190Z,1313
2022-08-24T09:52:54.395Z,1313
2022-08-24T09:53:54.175Z,1191
2022-08-24T09:54:54.179Z,640
2022-08-24T09:55:54.237Z,1147
2022-08-24T09:57:04.365Z,1178
2022-08-24T09:58:00.777Z,1163
2022-08-24T09:58:54.233Z,1248
2022-08-24T09:59:54.268Z,1385
2022-08-24T10:00:54.481Z,970
2022-08-24T10:01:54.259Z,1470
2022-08-24T10:02:54.386Z,1458
2022-08-24T10:03:54.239Z,970
2022-08-24T10:04:54.205Z,1074
2022-08-24T10:05:54.272Z,1521
2022-08-24T10:06:54.250Z,1107
2022-08-24T10:07:54.437Z,1014
2022-08-24T10:08:54.281Z,1128
2022-08-24T10:09:54.268Z,1207
2022-08-24T10:10:54.174Z,1776
2022-08-24T10:11:54.236Z,1181
2022-08-24T10:12:56.297Z,1207
2022-08-24T10:13:54.240Z,1723
2022-08-24T10:14:54.179Z,1215
2022-08-24T10:15:54.271Z,1860
2022-08-24T10:16:54.316Z,1860
2022-08-24T10:17:54.371Z,1872
2022-08-24T10:18:54.241Z,1933
2022-08-24T10:19:54.255Z,1912
2022-08-24T10:20:54.185Z,1360
2022-08-24T10:21:54.190Z,1288
2022-08-24T10:22:54.386Z,1277
2022-08-24T10:23:54.247Z,1860
2022-08-24T10:24:54.276Z,1228
2022-08-24T10:25:54.260Z,1895
2022-08-24T10:26:54.248Z,1860
2022-08-24T10:27:54.450Z,1385
2022-08-24T10:28:54.208Z,2259
2022-08-24T10:29:54.194Z,1961
2022-08-24T10:30:54.284Z,1603
2022-08-24T10:31:54.233Z,1630
2022-08-24T10:32:54.402Z,2647
2022-08-24T10:33:54.257Z,2006
2022-08-24T10:34:54.200Z,1650
2022-08-24T10:35:54.256Z,1548
2022-08-24T10:36:54.194Z,2438
2022-08-24T10:37:54.396Z,2583
2022-08-24T10:38:54.255Z,3004
2022-08-24T10:39:56.035Z,3004
2022-08-24T10:40:54.205Z,3004
2022-08-24T10:41:54.280Z,1860
2022-08-24T10:42:54.482Z,2823
2022-08-24T10:43:54.258Z,2062
2022-08-24T10:44:54.272Z,1973
2022-08-24T10:45:54.273Z,1787
2022-08-24T10:46:58.550Z,2568
2022-08-24T10:47:54.395Z,2300
2022-08-24T10:48:54.266Z,2568
2022-08-24T10:49:54.293Z,2041
2022-08-24T10:50:54.209Z,1107
2022-08-24T10:51:54.265Z,1171
2022-08-24T10:52:54.399Z,1517
2022-08-24T10:53:54.202Z,732
2022-08-24T10:54:54.219Z,920
2022-08-24T10:55:54.235Z,855
2022-08-24T10:56:54.209Z,791
2022-08-24T10:57:54.423Z,981
2022-08-24T10:58:54.214Z,915
2022-08-24T10:59:54.210Z,813
2022-08-24T11:00:54.261Z,529
2022-08-24T11:01:54.224Z,735
2022-08-24T11:02:54.394Z,637
2022-08-24T11:03:54.306Z,774
2022-08-24T11:04:54.277Z,519
2022-08-24T11:05:54.272Z,483
2022-08-24T11:06:54.214Z,692
2022-08-24T11:07:54.415Z,464
2022-08-24T11:08:54.276Z,594
2022-08-24T11:09:54.238Z,414
2022-08-24T11:10:54.212Z,586
2022-08-24T11:12:54.409Z,577
2022-08-24T11:13:54.222Z,524
2022-08-24T11:14:54.227Z,427
2022-08-24T11:15:54.294Z,624
2022-08-24T11:16:57.619Z,581
2022-08-24T11:17:54.401Z,400
2022-08-24T11:18:54.219Z,435
2022-08-24T11:19:54.225Z,699
2022-08-24T11:20:54.222Z,702
2022-08-24T11:21:54.228Z,706
2022-08-24T11:22:54.418Z,706
2022-08-24T11:23:54.237Z,457
2022-08-24T11:24:54.285Z,660
2022-08-24T11:25:54.291Z,656
2022-08-24T11:26:54.462Z,480
2022-08-24T11:27:54.430Z,461
2022-08-24T11:28:54.280Z,450
2022-08-24T11:29:54.232Z,531
2022-08-24T11:30:54.226Z,578
2022-08-24T11:31:54.335Z,749
2022-08-24T11:32:54.464Z,536
2022-08-24T11:33:54.244Z,475
2022-08-24T11:34:54.290Z,485
2022-08-24T11:35:54.315Z,500
2022-08-24T11:36:54.290Z,717
2022-08-24T11:37:54.436Z,717
2022-08-24T11:38:54.229Z,757
2022-08-24T11:39:54.272Z,759
2022-08-24T11:40:54.297Z,548
2022-08-24T11:41:54.299Z,534
2022-08-24T11:42:54.459Z,495
2022-08-24T11:43:54.289Z,675
2022-08-24T11:44:54.235Z,566
2022-08-24T11:45:54.310Z,708
2022-08-24T11:46:54.388Z,717
2022-08-24T11:47:54.427Z,763
2022-08-24T11:48:54.262Z,682
2022-08-24T11:49:54.247Z,712
2022-08-24T11:50:54.316Z,717
2022-08-24T11:51:54.245Z,712
2022-08-24T11:52:54.447Z,763
2022-08-24T11:53:54.305Z,560
2022-08-24T11:54:54.240Z,584
2022-08-24T11:55:57.379Z,584
2022-08-24T11:56:54.304Z,543
2022-08-24T11:57:54.485Z,495
2022-08-24T11:58:54.324Z,560
2022-08-24T11:59:54.302Z,791
2022-08-24T12:00:54.322Z,552
2022-08-24T12:01:54.360Z,534
2022-08-24T12:02:54.530Z,780
2022-08-24T12:03:54.251Z,502
2022-08-24T12:04:54.310Z,506
2022-08-24T12:05:54.324Z,506
2022-08-24T12:06:54.941Z,714
2022-08-24T12:07:54.424Z,506
2022-08-24T12:08:54.313Z,445
2022-08-24T12:09:54.253Z,666
2022-08-24T12:10:54.250Z,493
2022-08-24T12:11:54.272Z,733
2022-08-24T12:12:54.497Z,740
2022-08-24T12:13:54.313Z,529
2022-08-24T12:14:54.256Z,577
2022-08-24T12:15:54.292Z,629
2022-08-24T12:16:54.252Z,674
2022-08-24T12:17:54.443Z,712
2022-08-24T12:18:54.257Z,588
2022-08-24T12:19:54.316Z,977
2022-08-24T12:20:54.287Z,967
2022-08-24T12:21:54.313Z,1004
2022-08-24T12:22:54.474Z,1032
2022-08-24T12:23:54.273Z,761
2022-08-24T12:24:54.285Z,1147
2022-08-24T12:25:54.318Z,1201
2022-08-24T12:26:54.336Z,874
2022-08-24T12:27:54.461Z,1345
2022-08-24T12:28:54.734Z,1150
2022-08-24T12:29:54.263Z,1270
2022-08-24T12:30:54.323Z,895
2022-08-24T12:31:54.433Z,1380
2022-08-24T12:32:54.490Z,1453
2022-08-24T12:33:54.263Z,1156
2022-08-24T12:34:58.038Z,1259
2022-08-24T12:35:54.325Z,1884
2022-08-24T12:36:54.269Z,1281
2022-08-24T12:37:54.463Z,2214
2022-08-24T12:38:54.326Z,1513
2022-08-24T12:39:54.313Z,2110
2022-08-24T12:40:54.323Z,1759
2022-08-24T12:41:54.271Z,2717
2022-08-24T12:42:54.474Z,2815
2022-08-24T12:43:54.268Z,2473
2022-08-24T12:44:54.327Z,3305
2022-08-24T12:45:54.277Z,2521
2022-08-24T12:46:54.366Z,2647
2022-08-24T12:47:54.468Z,3913
2022-08-24T12:48:54.918Z,3979
2022-08-24T12:49:54.355Z,2823
2022-08-24T12:50:54.333Z,3934
2022-08-24T12:51:54.274Z,3287
2022-08-24T12:52:54.477Z,3505
2022-08-24T12:53:54.321Z,2801
2022-08-24T12:54:54.355Z,3632
2022-08-24T12:55:54.339Z,3663
2022-08-24T12:56:54.343Z,2146
2022-08-24T12:57:54.793Z,1895
2022-08-24T12:58:55.257Z,2689
2022-08-24T12:59:54.336Z,1654
2022-08-24T13:00:54.366Z,1495
2022-08-24T13:01:54.495Z,1984
2022-08-24T13:02:54.459Z,1270
2022-08-24T13:03:54.353Z,1697
2022-08-24T13:04:54.292Z,1044
2022-08-24T13:05:54.340Z,956
2022-08-24T13:06:57.684Z,902
2022-08-24T13:07:54.490Z,1198
2022-08-24T13:08:54.288Z,787
2022-08-24T13:09:54.292Z,746
2022-08-24T13:10:54.340Z,1007
2022-08-24T13:11:54.299Z,920
2022-08-24T13:12:54.552Z,626
2022-08-24T13:13:54.296Z,643
2022-08-24T13:14:56.862Z,476
2022-08-24T13:15:54.414Z,776
2022-08-24T13:16:54.298Z,744
2022-08-24T13:17:56.605Z,715
2022-08-24T13:18:54.316Z,660
2022-08-24T13:19:54.376Z,665
2022-08-24T13:20:54.354Z,641
2022-08-24T13:21:54.299Z,660
2022-08-24T13:22:54.542Z,480
2022-08-24T13:23:54.371Z,605
2022-08-24T13:24:54.288Z,422
2022-08-24T13:25:54.325Z,597
2022-08-24T13:26:54.355Z,615
2022-08-24T13:27:54.521Z,640
2022-08-24T13:28:54.420Z,611
2022-08-24T13:29:54.358Z,617
2022-08-24T13:30:54.473Z,660
2022-08-24T13:31:54.359Z,640
2022-08-24T13:32:54.504Z,746
2022-08-24T13:33:54.362Z,742
2022-08-24T13:34:54.299Z,759
2022-08-24T13:35:54.307Z,795
2022-08-24T13:36:54.302Z,821
2022-08-24T13:37:54.504Z,565
2022-08-24T13:38:54.296Z,640
2022-08-24T13:39:54.373Z,907
2022-08-24T13:40:54.308Z,927
2022-08-24T13:41:54.361Z,821
2022-08-24T13:42:54.479Z,902
2022-08-24T13:43:54.366Z,1053
2022-08-24T13:44:54.405Z,1035
2022-08-24T13:45:54.372Z,977
2022-08-24T13:46:54.381Z,964
2022-08-24T13:47:54.489Z,933
2022-08-24T13:48:54.369Z,679
2022-08-24T13:49:54.374Z,972
2022-08-24T13:50:54.302Z,618
2022-08-24T13:51:54.402Z,907
2022-08-24T13:52:54.566Z,690
2022-08-24T13:53:54.319Z,553
2022-08-24T13:54:54.335Z,540
2022-08-24T13:55:54.315Z,540
2022-08-24T13:56:54.370Z,770
2022-08-24T13:57:54.508Z,537
2022-08-24T13:58:54.334Z,699